• Join FlightAware (Why Join?)
  • Login
  • US Flag 
03:34AM EDT


 

Airport Tracker/Info


-or-


 

Live Flight TrackerFlight Track Log ✈ SKQ45 ✈ 22-Apr-2013 ✈ KBUY - KPAH

Flight Track Log - Related Links

Times and Time Zones

All times are in EDT time to prevent confusion due to time zone crossing. See the SKQ45 flight status page for this flight to view local times or setup timezone preferences in your user account.

Time Position Orientation Groundspeed Altitude Reporting Facility
EDT Latitude Longitude Course Direction KTS MPH feet Rate Location/Type
08:31PM 36.0675 -79.5947 282° West 173 199 5,500  Level Atlanta Center
08:32PM 36.0714 -79.6408 276° West 166 191 7,300 1,800 Climbing Atlanta Center
08:33PM 36.0775 -79.6969 278° West 159 183 9,200 1,680 Climbing Atlanta Center
08:34PM 36.0833 -79.7481 278° West 159 183 10,700 1,320 Climbing Atlanta Center
08:35PM 36.0958 -79.8092 284° West 165 190 11,900 600 Climbing Atlanta Center
08:36PM 36.1000 -79.8465 270° West  Level FlightAware Approximate
08:36PM 36.1214 -79.8822 293° West 193 222 11,900  Level Atlanta Center
08:37PM 36.1121 -79.9228 282° West  Level FlightAware Approximate
08:37PM 36.1464 -79.9478 295° West 209 241 13,700  Level Atlanta Center
08:38PM 36.1669 -79.9956 298° West 193 222 15,600 1,140 Climbing Atlanta Center
08:39PM 36.1917 -80.0561 297° West 183 211 16,000 180 Climbing Atlanta Center
08:40PM 36.2208 -80.1192 300° West 202 232 16,000  Level Atlanta Center
08:41PM 36.2564 -80.1842 304° West 223 257 16,000 900 Level Atlanta Center
08:42PM 36.2894 -80.2444 304° West 228 262 17,800 1,500 Climbing Atlanta Center
08:43PM 36.3161 -80.2922 305° West 197 227 19,100 1,080 Climbing Atlanta Center
08:44PM 36.3303 -80.3533 286° West 179 206 20,000 420 Climbing Atlanta Center
08:45PM 36.3389 -80.4303 278° West 188 216 20,000  Level Atlanta Center
08:46PM 36.3472 -80.5047 278° West 210 242 20,000  Level Atlanta Center
08:47PM 36.3578 -80.5817 280° West 240 276 20,000  Level Atlanta Center
08:48PM 36.3708 -80.6714 280° West 252 290 20,000  Level Atlanta Center
08:49PM 36.3794 -80.7561 277° West 252 290 20,000  Level Atlanta Center
08:50PM 36.3897 -80.8356 279° West 247 284 20,000  Level Atlanta Center
08:51PM 36.4003 -80.9175 279° West 247 284 20,000  Level Atlanta Center
08:52PM 36.4086 -81.0000 277° West 241 277 20,000  Level Atlanta Center
08:53PM 36.4189 -81.0847 279° West 241 277 20,000  Level Atlanta Center
08:54PM 36.4272 -81.1642 277° West 241 277 20,000  Level Atlanta Center
08:55PM 36.4394 -81.2492 280° West 236 272 20,000  Level Atlanta Center
08:56PM 36.4475 -81.3289 277° West 236 272 20,000  Level Atlanta Center
08:57PM 36.4556 -81.4136 277° West 236 272 20,000  Level Atlanta Center
08:58PM 36.4658 -81.4958 279° West 241 277 20,000  Level Atlanta Center
08:59PM 36.4758 -81.5808 278° West 241 277 20,000  Level Atlanta Center
09:00PM 36.4836 -81.6528 278° West 241 277 20,000  Level Atlanta Center
09:01PM 36.4933 -81.7353 278° West 241 277 20,000  Level Atlanta Center
09:02PM 36.5033 -81.8175 279° West 241 277 20,000  Level Atlanta Center
09:03PM 36.5089 -81.9000 275° West 241 277 20,000  Level Atlanta Center
09:04PM 36.5186 -81.9850 278° West 241 277 20,000  Level Atlanta Center
09:05PM 36.5283 -82.0675 278° West 241 277 20,000  Level Atlanta Center
09:06PM 36.5358 -82.1525 276° West 241 277 20,000  Level Atlanta Center
09:07PM 36.5456 -82.2350 278° West 246 283 20,000  Level Atlanta Center
09:08PM 36.5550 -82.3200 278° West 246 283 20,000  Level Atlanta Center
09:09PM 36.5647 -82.4053 278° West 246 283 20,000  Level Atlanta Center
09:10PM 36.5719 -82.4853 276° West 252 290 20,000  Level Atlanta Center
09:11PM 36.5792 -82.5703 276° West 252 290 20,000  Level Atlanta Center
09:12PM 36.5906 -82.6556 279° West 252 290 20,000  Level Atlanta Center
09:13PM 36.5978 -82.7381 276° West 252 290 20,000  Level Atlanta Center
09:14PM 36.6050 -82.8233 276° West 252 290 20,000  Level Atlanta Center
09:17PM 36.6261 -83.0075 278° West 246 283 20,000  Level Indianapolis Center
09:18PM 36.6350 -83.0919 277° West 245 282 20,000  Level Indianapolis Center
09:19PM 36.6433 -83.1753 277° West 243 280 20,000  Level Indianapolis Center
09:20PM 36.6517 -83.2594 277° West 243 280 20,000  Level Indianapolis Center
09:21PM 36.6594 -83.3439 277° West 244 281 20,000  Level Indianapolis Center
09:22PM 36.6678 -83.4258 277° West 241 277 20,000  Level Indianapolis Center
09:23PM 36.6756 -83.5081 277° West 238 274 20,000  Level Indianapolis Center
09:24PM 36.6836 -83.5906 277° West 239 275 20,000  Level Indianapolis Center
09:25PM 36.6911 -83.6725 277° West 238 274 20,000  Level Indianapolis Center
09:26PM 36.6989 -83.7550 277° West 239 275 20,000  Level Indianapolis Center
09:27PM 36.7078 -83.8531 276° West 243 280 20,000  Level Indianapolis Center
09:28PM 36.7161 -83.9339 277° West 236 272 20,000  Level Indianapolis Center
09:29PM 36.7236 -84.0158 277° West 236 272 20,000  Level Indianapolis Center
09:30PM 36.7314 -84.0981 277° West 235 270 20,000  Level Indianapolis Center
09:31PM 36.7369 -84.1781 275° West 232 267 20,000  Level Indianapolis Center
09:32PM 36.7444 -84.2614 276° West 240 276 20,000  Level Indianapolis Center
09:33PM 36.7522 -84.3414 277° West 234 269 20,000  Level Indianapolis Center
09:34PM 36.7603 -84.4244 277° West 241 277 20,000  Level Indianapolis Center
09:35PM 36.7672 -84.5108 276° West 235 270 20,000  Level Indianapolis Center
09:36PM 36.7744 -84.5925 276° West 237 273 20,000  Level Indianapolis Center
09:37PM 36.7817 -84.6756 276° West 241 277 20,000  Level Indianapolis Center
09:38PM 36.7878 -84.7578 275° West 239 275 20,000  Level Indianapolis Center
09:39PM 36.7956 -84.8411 277° West 242 278 20,000  Level Indianapolis Center
09:40PM 36.8028 -84.9247 276° West 243 280 20,000  Level Indianapolis Center
09:41PM 36.8111 -85.0261 276° West 245 282 20,000  Level Indianapolis Center
09:42PM 36.8183 -85.1097 276° West 245 282 20,000  Level Indianapolis Center
09:43PM 36.8242 -85.1931 275° West 243 280 20,000  Level Indianapolis Center
09:44PM 36.8314 -85.2761 276° West 242 278 20,000  Level Indianapolis Center
09:45PM 36.8369 -85.3594 275° West 241 277 20,000  Level Indianapolis Center
09:46PM 36.8436 -85.4431 276° West 242 278 20,000  Level Indianapolis Center
09:47PM 36.8500 -85.5236 276° West 243 280 20,000  Level Indianapolis Center
09:48PM 36.8558 -85.6144 275° West 247 284 20,000  Level Memphis Center
09:49PM 36.8653 -85.6997 278° West 242 278 20,000  Level Memphis Center
09:50PM 36.8703 -85.7822 274° West 242 278 20,000  Level Memphis Center
09:51PM 36.8778 -85.8675 276° West 247 284 20,000  Level Memphis Center
09:52PM 36.8828 -85.9528 274° West 252 290 20,000  Level Memphis Center
09:53PM 36.8900 -86.0381 276° West 252 290 20,000  Level Memphis Center
09:54PM 36.8950 -86.1208 274° West 252 290 20,000  Level Memphis Center
09:55PM 36.9019 -86.2033 276° West 252 290 20,000  Level Memphis Center
09:56PM 36.9089 -86.2886 276° West 252 290 20,000  Level Memphis Center
09:57PM 36.9158 -86.3714 276° West 252 290 20,000  Level Memphis Center
09:58PM 36.9206 -86.4567 274° West 252 290 20,000  Level Memphis Center
09:59PM 36.9269 -86.5317 276° West 252 290 20,000  Level Memphis Center
10:00PM 36.9317 -86.6169 274° West 252 290 20,000  Level Memphis Center
10:02PM 36.9428 -86.7853 275° West 252 290 20,000  Level Memphis Center
10:03PM 36.9494 -86.8681 276° West 252 290 20,000  Level Memphis Center
10:04PM 36.9561 -86.9533 276° West 252 290 20,000  Level Memphis Center
10:05PM 36.9603 -87.0389 274° West 252 290 20,000  Level Memphis Center
10:06PM 36.9667 -87.1244 275° West 252 290 20,000 -480 Level Memphis Center
10:07PM 36.9714 -87.2203 274° West 252 290 19,100 -900 Descending Memphis Center
10:08PM 36.9778 -87.3161 275° West 258 297 18,200 -900 Descending Memphis Center
10:09PM 36.9822 -87.4094 273° West 270 311 17,400 -900 Descending Memphis Center
10:10PM 36.9886 -87.5053 275° West 275 316 16,400 -1,020 Descending Memphis Center
10:11PM 36.9950 -87.5986 275° West 270 311 15,400 -1,020 Descending Memphis Center
10:12PM 37.0011 -87.6917 275° West 270 311 14,400 -960 Descending Memphis Center
10:13PM 37.0072 -87.7878 275° West 270 311 13,500 -960 Descending Memphis Center
10:14PM 37.0111 -87.8786 273° West 275 316 12,500 -1,020 Descending Memphis Center
10:15PM 37.0194 -87.9717 276° West 270 311 11,500 -720 Descending Memphis Center
10:16PM 37.0231 -88.0625 273° West 270 311 11,100 -720 Descending Memphis Center
10:17PM 37.0308 -88.1481 277° West 270 311 10,100 -1,260 Descending Memphis Center
10:18PM 37.0325 -88.2311 271° West 265 305 8,600 -1,440 Descending Memphis Center
10:19PM 37.0400 -88.3194 276° West 260 299 7,300 -1,380 Descending Memphis Center
10:20PM 37.0436 -88.4078 273° West 255 293 5,900 -1,260 Descending Memphis Center
10:21PM 37.0469 -88.4961 273° West 255 293 4,800 -960 Descending Memphis Center
10:22PM 37.0503 -88.5792 273° West 250 288 4,000 -1,020 Descending Memphis Center
10:23PM 37.0533 -88.6389 274° West 218 251 2,800 -1,320 Descending Memphis Center
10:24PM 37.0456 -88.6908 259° West 176 203 1,400 -840 Descending Memphis Center
10:25PM 37.0422 -88.7378 265° West 155 178 1,200 -300 Descending Memphis Center
10:26PM 37.0408 -88.7975 268° West 150 173 800 1,380 Descending Memphis Center
10:27PM 37.0372 -88.8497 265° West 150 173 4,000 3,180 Climbing Memphis Center